Smiths Park, South Dakota
Current Conditions -  °F | °C
As of 2:55 AM on Sunday 23 Nov 2014 (Local Time) from KMDS Reporting Station
Overcast Overcast  
Wind Chill: 31°   Ceiling: 9000
Heat Index: 37°   Visibility: 10mi
Dew Point: 37°   Wind: 8mph
Humidity: 100%   Direction: 140°SE
Pressure: 29.41"   Gusts: NA
Location:  43.9868°N, 96.9457°W
Report Text: KMDS 230855Z AUTO 14007KT 10SM OVC090 03/03 A2941 RMK AO2
Loading
Personal Weather Stations






























Interactive Weather Map New forecast layout! Learn more

10-Day Weather Forecast

Advertisements
Track Severe Weather on mobile